sensor_id;sensor_type;location;lat;lon;timestamp;pressure;altitude;pressure_sealevel;temperature;humidity
74905;BME280;63465;50.862;6.220;2023-04-06T00:00:01;100132.34;;;3.86;68.06
74905;BME280;63465;50.862;6.220;2023-04-06T00:02:35;100129.88;;;3.75;68.30
74905;BME280;63465;50.862;6.220;2023-04-06T00:05:02;100131.63;;;3.74;68.97
74905;BME280;63465;50.862;6.220;2023-04-06T00:07:28;100130.81;;;3.71;68.87
74905;BME280;63465;50.862;6.220;2023-04-06T00:09:55;100122.19;;;3.61;69.35
74905;BME280;63465;50.862;6.220;2023-04-06T00:12:22;100124.84;;;3.58;69.49
74905;BME280;63465;50.862;6.220;2023-04-06T00:14:49;100125.72;;;3.60;68.91
74905;BME280;63465;50.862;6.220;2023-04-06T00:17:17;100118.59;;;3.68;68.74
74905;BME280;63465;50.862;6.220;2023-04-06T00:19:44;100115.06;;;3.72;68.32
74905;BME280;63465;50.862;6.220;2023-04-06T00:22:11;100117.78;;;3.66;68.14
74905;BME280;63465;50.862;6.220;2023-04-06T00:24:37;100113.34;;;3.68;68.17
74905;BME280;63465;50.862;6.220;2023-04-06T00:27:04;100112.59;;;3.60;68.95
74905;BME280;63465;50.862;6.220;2023-04-06T00:29:31;100113.53;;;3.56;69.23
74905;BME280;63465;50.862;6.220;2023-04-06T00:31:58;100103.25;;;3.41;70.21
74905;BME280;63465;50.862;6.220;2023-04-06T00:34:26;100103.44;;;3.25;71.32
74905;BME280;63465;50.862;6.220;2023-04-06T00:36:52;100094.84;;;3.12;71.71
74905;BME280;63465;50.862;6.220;2023-04-06T00:39:19;100094.06;;;3.04;72.21
74905;BME280;63465;50.862;6.220;2023-04-06T00:41:50;100092.41;;;2.97;72.55
74905;BME280;63465;50.862;6.220;2023-04-06T00:44:17;100091.56;;;2.95;72.75
74905;BME280;63465;50.862;6.220;2023-04-06T00:46:44;100087.22;;;2.91;72.56
74905;BME280;63465;50.862;6.220;2023-04-06T00:49:11;100090.75;;;2.90;72.37
74905;BME280;63465;50.862;6.220;2023-04-06T00:51:39;100090.81;;;2.85;72.91
74905;BME280;63465;50.862;6.220;2023-04-06T00:56:54;100083.88;;;2.78;73.05
74905;BME280;63465;50.862;6.220;2023-04-06T00:59:23;100085.66;;;2.77;73.26
74905;BME280;63465;50.862;6.220;2023-04-06T01:01:51;100080.44;;;2.74;73.20
74905;BME280;63465;50.862;6.220;2023-04-06T01:04:31;100082.09;;;2.81;73.02
74905;BME280;63465;50.862;6.220;2023-04-06T01:07:01;100084.72;;;2.80;72.93
74905;BME280;63465;50.862;6.220;2023-04-06T01:09:36;100071.56;;;2.84;72.56
74905;BME280;63465;50.862;6.220;2023-04-06T01:12:13;100069.03;;;2.78;72.64
74905;BME280;63465;50.862;6.220;2023-04-06T01:14:41;100070.00;;;2.71;73.31
74905;BME280;63465;50.862;6.220;2023-04-06T01:17:08;100065.28;;;2.99;72.78
74905;BME280;63465;50.862;6.220;2023-04-06T01:19:36;100062.63;;;3.02;72.20
74905;BME280;63465;50.862;6.220;2023-04-06T01:22:04;100063.66;;;2.89;72.50
74905;BME280;63465;50.862;6.220;2023-04-06T01:24:33;100061.03;;;2.91;72.16
74905;BME280;63465;50.862;6.220;2023-04-06T01:27:25;100052.38;;;2.82;72.69
74905;BME280;63465;50.862;6.220;2023-04-06T01:30:12;100060.34;;;2.75;72.91
74905;BME280;63465;50.862;6.220;2023-04-06T01:32:58;100051.94;;;2.42;73.24
74905;BME280;63465;50.862;6.220;2023-04-06T01:35:37;100049.81;;;1.86;75.62
74905;BME280;63465;50.862;6.220;2023-04-06T01:38:13;100049.91;;;1.75;76.81
74905;BME280;63465;50.862;6.220;2023-04-06T01:40:42;100051.66;;;1.76;77.17
74905;BME280;63465;50.862;6.220;2023-04-06T01:43:09;100044.53;;;1.94;76.56
74905;BME280;63465;50.862;6.220;2023-04-06T01:45:49;100047.00;;;2.11;75.76
74905;BME280;63465;50.862;6.220;2023-04-06T01:48:19;100037.31;;;2.21;75.21
74905;BME280;63465;50.862;6.220;2023-04-06T01:50:46;100043.44;;;2.18;75.22
74905;BME280;63465;50.862;6.220;2023-04-06T01:53:19;100039.09;;;2.16;75.72
74905;BME280;63465;50.862;6.220;2023-04-06T01:55:48;100042.72;;;2.02;75.72
74905;BME280;63465;50.862;6.220;2023-04-06T01:58:32;100043.63;;;1.96;76.00
74905;BME280;63465;50.862;6.220;2023-04-06T02:00:59;100034.97;;;1.88;76.25
74905;BME280;63465;50.862;6.220;2023-04-06T02:03:31;100039.25;;;1.97;76.18
74905;BME280;63465;50.862;6.220;2023-04-06T02:06:05;100030.50;;;2.01;75.72
74905;BME280;63465;50.862;6.220;2023-04-06T02:08:36;100026.06;;;2.11;75.46
74905;BME280;63465;50.862;6.220;2023-04-06T02:11:04;100022.56;;;2.12;74.82
74905;BME280;63465;50.862;6.220;2023-04-06T02:13:40;100021.78;;;2.02;75.11
74905;BME280;63465;50.862;6.220;2023-04-06T02:16:08;100018.25;;;2.06;74.89
74905;BME280;63465;50.862;6.220;2023-04-06T02:18:35;100013.84;;;2.13;74.46
74905;BME280;63465;50.862;6.220;2023-04-06T02:21:03;100013.75;;;2.21;74.30
74905;BME280;63465;50.862;6.220;2023-04-06T02:23:30;100020.59;;;2.32;73.98
74905;BME280;63465;50.862;6.220;2023-04-06T02:25:57;100014.44;;;2.40;73.62
74905;BME280;63465;50.862;6.220;2023-04-06T02:28:25;100005.66;;;2.44;73.08
74905;BME280;63465;50.862;6.220;2023-04-06T02:30:52;100014.38;;;2.46;72.37
74905;BME280;63465;50.862;6.220;2023-04-06T02:33:23;100011.63;;;2.55;70.20
74905;BME280;63465;50.862;6.220;2023-04-06T02:35:50;100014.94;;;2.73;68.89
74905;BME280;63465;50.862;6.220;2023-04-06T02:38:16;99998.28;;;2.78;67.72
74905;BME280;63465;50.862;6.220;2023-04-06T02:40:44;100010.44;;;2.84;67.39
74905;BME280;63465;50.862;6.220;2023-04-06T02:43:18;99999.81;;;2.95;67.31
74905;BME280;63465;50.862;6.220;2023-04-06T02:45:46;99998.09;;;2.92;67.81
74905;BME280;63465;50.862;6.220;2023-04-06T02:48:13;100001.59;;;2.93;66.94
74905;BME280;63465;50.862;6.220;2023-04-06T02:50:40;99999.72;;;3.01;67.99
74905;BME280;63465;50.862;6.220;2023-04-06T02:53:07;99992.84;;;2.92;68.76
74905;BME280;63465;50.862;6.220;2023-04-06T02:55:36;99994.69;;;2.85;69.25
74905;BME280;63465;50.862;6.220;2023-04-06T02:58:03;99990.47;;;2.74;69.50
74905;BME280;63465;50.862;6.220;2023-04-06T03:00:37;99991.50;;;2.59;70.26
74905;BME280;63465;50.862;6.220;2023-04-06T03:03:05;100002.94;;;2.55;70.12
74905;BME280;63465;50.862;6.220;2023-04-06T03:05:33;99989.88;;;2.52;69.20
74905;BME280;63465;50.862;6.220;2023-04-06T03:08:00;99987.25;;;2.52;69.40
74905;BME280;63465;50.862;6.220;2023-04-06T03:10:45;99990.78;;;2.47;70.17
74905;BME280;63465;50.862;6.220;2023-04-06T03:13:13;99992.63;;;2.39;71.40
74905;BME280;63465;50.862;6.220;2023-04-06T03:15:44;99990.84;;;2.41;71.37
74905;BME280;63465;50.862;6.220;2023-04-06T03:18:20;99998.72;;;2.40;70.61
74905;BME280;63465;50.862;6.220;2023-04-06T03:20:48;99990.81;;;2.44;70.39
74905;BME280;63465;50.862;6.220;2023-04-06T03:23:17;99989.84;;;2.55;68.73
74905;BME280;63465;50.862;6.220;2023-04-06T03:25:46;99989.84;;;2.55;68.39
74905;BME280;63465;50.862;6.220;2023-04-06T03:28:17;99985.38;;;2.60;67.92
74905;BME280;63465;50.862;6.220;2023-04-06T03:30:56;99982.66;;;2.69;67.37
74905;BME280;63465;50.862;6.220;2023-04-06T03:33:44;99980.84;;;2.77;67.40
74905;BME280;63465;50.862;6.220;2023-04-06T03:36:18;99980.84;;;2.77;67.50
74905;BME280;63465;50.862;6.220;2023-04-06T03:38:45;99987.75;;;2.80;67.27
74905;BME280;63465;50.862;6.220;2023-04-06T03:41:13;99979.81;;;2.86;67.29
74905;BME280;63465;50.862;6.220;2023-04-06T03:43:46;99981.44;;;2.98;66.58
74905;BME280;63465;50.862;6.220;2023-04-06T03:46:12;99977.88;;;3.03;66.43
74905;BME280;63465;50.862;6.220;2023-04-06T03:48:39;99988.22;;;3.13;66.77
74905;BME280;63465;50.862;6.220;2023-04-06T03:51:08;99977.75;;;3.11;66.08
74905;BME280;63465;50.862;6.220;2023-04-06T03:53:34;99977.75;;;3.11;65.58
74905;BME280;63465;50.862;6.220;2023-04-06T03:56:02;99981.22;;;3.13;66.68
74905;BME280;63465;50.862;6.220;2023-04-06T03:58:29;99976.81;;;3.14;66.94
74905;BME280;63465;50.862;6.220;2023-04-06T04:00:56;99974.22;;;3.12;66.96
74905;BME280;63465;50.862;6.220;2023-04-06T04:03:23;99972.56;;;3.07;67.27
74905;BME280;63465;50.862;6.220;2023-04-06T04:05:52;99973.47;;;3.04;67.62
74905;BME280;63465;50.862;6.220;2023-04-06T04:08:20;99971.75;;;3.01;67.91
74905;BME280;63465;50.862;6.220;2023-04-06T04:10:47;99969.97;;;3.05;66.94
74905;BME280;63465;50.862;6.220;2023-04-06T04:13:14;99969.97;;;3.07;67.04
74905;BME280;63465;50.862;6.220;2023-04-06T04:15:44;99978.47;;;3.21;68.04
74905;BME280;63465;50.862;6.220;2023-04-06T04:18:13;99977.53;;;3.27;67.14
74905;BME280;63465;50.862;6.220;2023-04-06T04:20:39;99980.16;;;3.27;66.22
74905;BME280;63465;50.862;6.220;2023-04-06T04:23:08;99976.59;;;3.31;66.70
74905;BME280;63465;50.862;6.220;2023-04-06T04:25:36;99973.91;;;3.37;66.48
74905;BME280;63465;50.862;6.220;2023-04-06T04:28:03;99972.97;;;3.38;66.13
74905;BME280;63465;50.862;6.220;2023-04-06T04:30:30;99977.31;;;3.42;66.28
74905;BME280;63465;50.862;6.220;2023-04-06T04:32:57;99978.97;;;3.48;66.36
74905;BME280;63465;50.862;6.220;2023-04-06T04:35:24;99971.91;;;3.51;65.95
74905;BME280;63465;50.862;6.220;2023-04-06T04:37:51;99970.84;;;3.65;65.45
74905;BME280;63465;50.862;6.220;2023-04-06T04:40:18;99976.03;;;3.68;65.25
74905;BME280;63465;50.862;6.220;2023-04-06T04:42:53;99972.44;;;3.72;66.14
74905;BME280;63465;50.862;6.220;2023-04-06T04:45:30;99976.00;;;3.69;65.63
74905;BME280;63465;50.862;6.220;2023-04-06T04:48:03;99973.00;;;3.91;65.47
74905;BME280;63465;50.862;6.220;2023-04-06T04:50:44;99975.59;;;3.94;64.34
74905;BME280;63465;50.862;6.220;2023-04-06T04:53:11;99972.06;;;3.97;65.05
74905;BME280;63465;50.862;6.220;2023-04-06T04:55:39;99969.22;;;4.07;64.58
74905;BME280;63465;50.862;6.220;2023-04-06T04:58:08;99969.16;;;4.12;64.04
74905;BME280;63465;50.862;6.220;2023-04-06T05:00:57;99972.59;;;4.14;63.05
74905;BME280;63465;50.862;6.220;2023-04-06T05:03:25;99970.66;;;4.24;62.66
74905;BME280;63465;50.862;6.220;2023-04-06T05:05:59;99978.25;;;4.39;62.43
74905;BME280;63465;50.862;6.220;2023-04-06T05:08:30;99976.50;;;4.40;63.31
74905;BME280;63465;50.862;6.220;2023-04-06T05:10:57;99977.03;;;4.57;63.39
74905;BME280;63465;50.862;6.220;2023-04-06T05:13:25;99971.00;;;4.52;63.45
74905;BME280;63465;50.862;6.220;2023-04-06T05:15:54;99968.34;;;4.54;63.86
74905;BME280;63465;50.862;6.220;2023-04-06T05:18:27;99972.81;;;4.49;65.35
74905;BME280;63465;50.862;6.220;2023-04-06T05:20:55;99973.81;;;4.43;66.12
74905;BME280;63465;50.862;6.220;2023-04-06T05:23:30;99966.03;;;4.38;65.64
74905;BME280;63465;50.862;6.220;2023-04-06T05:25:59;99965.13;;;4.39;67.21
74905;BME280;63465;50.862;6.220;2023-04-06T05:28:28;99970.34;;;4.41;66.11
74905;BME280;63465;50.862;6.220;2023-04-06T05:30:55;99966.84;;;4.40;66.94
74905;BME280;63465;50.862;6.220;2023-04-06T05:33:22;99959.88;;;4.38;66.91
74905;BME280;63465;50.862;6.220;2023-04-06T05:35:59;99959.13;;;4.33;67.79
74905;BME280;63465;50.862;6.220;2023-04-06T05:38:27;99965.13;;;4.39;68.38
74905;BME280;63465;50.862;6.220;2023-04-06T05:40:57;99964.84;;;4.53;68.22
74905;BME280;63465;50.862;6.220;2023-04-06T05:43:29;99967.50;;;4.52;67.79
74905;BME280;63465;50.862;6.220;2023-04-06T05:45:58;99963.09;;;4.54;68.16
74905;BME280;63465;50.862;6.220;2023-04-06T05:48:25;99960.56;;;4.49;68.07
74905;BME280;63465;50.862;6.220;2023-04-06T05:50:52;99962.16;;;4.56;68.93
74905;BME280;63465;50.862;6.220;2023-04-06T05:53:25;99965.44;;;4.68;68.81
74905;BME280;63465;50.862;6.220;2023-04-06T05:55:55;99962.69;;;4.74;68.18
74905;BME280;63465;50.862;6.220;2023-04-06T05:58:22;99959.72;;;4.89;67.49
74905;BME280;63465;50.862;6.220;2023-04-06T06:00:57;99964.66;;;5.05;68.23
74905;BME280;63465;50.862;6.220;2023-04-06T06:03:25;99959.34;;;5.06;68.63
74905;BME280;63465;50.862;6.220;2023-04-06T06:05:59;99954.81;;;5.13;68.02
74905;BME280;63465;50.862;6.220;2023-04-06T06:08:30;99955.75;;;5.12;67.94
74905;BME280;63465;50.862;6.220;2023-04-06T06:10:59;99960.09;;;5.11;68.39
74905;BME280;63465;50.862;6.220;2023-04-06T06:13:26;99948.69;;;5.12;67.66
74905;BME280;63465;50.862;6.220;2023-04-06T06:15:54;99952.69;;;5.30;67.61
74905;BME280;63465;50.862;6.220;2023-04-06T06:18:24;99951.66;;;5.38;68.05
74905;BME280;63465;50.862;6.220;2023-04-06T06:20:52;99945.09;;;5.54;67.74
74905;BME280;63465;50.862;6.220;2023-04-06T06:23:19;99946.53;;;5.67;67.18
74905;BME280;63465;50.862;6.220;2023-04-06T06:25:46;99948.97;;;5.75;66.90
74905;BME280;63465;50.862;6.220;2023-04-06T06:28:13;99940.88;;;5.83;67.24
74905;BME280;63465;50.862;6.220;2023-04-06T06:30:40;99944.94;;;5.96;67.23
74905;BME280;63465;50.862;6.220;2023-04-06T06:33:07;99947.91;;;6.17;66.90
74905;BME280;63465;50.862;6.220;2023-04-06T06:35:35;99947.41;;;6.35;63.82
74905;BME280;63465;50.862;6.220;2023-04-06T06:38:03;99949.47;;;6.55;61.15
74905;BME280;63465;50.862;6.220;2023-04-06T06:40:31;99946.88;;;6.54;60.07
74905;BME280;63465;50.862;6.220;2023-04-06T06:42:58;99950.06;;;6.67;59.45
74905;BME280;63465;50.862;6.220;2023-04-06T06:45:43;99948.75;;;6.82;59.11
74905;BME280;63465;50.862;6.220;2023-04-06T06:48:12;99954.75;;;6.87;58.96
74905;BME280;63465;50.862;6.220;2023-04-06T06:50:41;99946.75;;;6.90;58.76
74905;BME280;63465;50.862;6.220;2023-04-06T06:53:07;99949.25;;;6.94;59.65
74905;BME280;63465;50.862;6.220;2023-04-06T06:55:34;99948.16;;;7.02;59.76
74905;BME280;63465;50.862;6.220;2023-04-06T06:58:01;99953.28;;;7.06;60.29
74905;BME280;63465;50.862;6.220;2023-04-06T07:00:28;99951.38;;;7.11;60.16
74905;BME280;63465;50.862;6.220;2023-04-06T07:02:55;99947.63;;;7.19;60.15
74905;BME280;63465;50.862;6.220;2023-04-06T07:05:22;99938.66;;;7.24;60.84
74905;BME280;63465;50.862;6.220;2023-04-06T07:07:50;99945.00;;;7.45;60.10
74905;BME280;63465;50.862;6.220;2023-04-06T07:10:17;99940.06;;;7.63;60.01
74905;BME280;63465;50.862;6.220;2023-04-06T07:12:44;99943.41;;;7.68;60.22
74905;BME280;63465;50.862;6.220;2023-04-06T07:15:11;99949.09;;;7.56;60.64
74905;BME280;63465;50.862;6.220;2023-04-06T07:17:38;99938.31;;;7.89;60.20
74905;BME280;63465;50.862;6.220;2023-04-06T07:20:07;99936.69;;;7.84;59.95
74905;BME280;63465;50.862;6.220;2023-04-06T07:22:34;99933.25;;;8.08;59.41
74905;BME280;63465;50.862;6.220;2023-04-06T07:25:03;99938.16;;;8.18;58.45
74905;BME280;63465;50.862;6.220;2023-04-06T07:27:30;99935.59;;;8.40;58.27
74905;BME280;63465;50.862;6.220;2023-04-06T07:29:58;99925.78;;;8.46;58.16
74905;BME280;63465;50.862;6.220;2023-04-06T07:32:25;99936.53;;;8.65;57.62
74905;BME280;63465;50.862;6.220;2023-04-06T07:34:52;99938.44;;;8.61;57.25
74905;BME280;63465;50.862;6.220;2023-04-06T07:37:19;99934.59;;;8.70;57.52
74905;BME280;63465;50.862;6.220;2023-04-06T07:39:47;99930.88;;;8.74;57.33
74905;BME280;63465;50.862;6.220;2023-04-06T07:42:15;99933.13;;;8.85;56.94
74905;BME280;63465;50.862;6.220;2023-04-06T07:44:43;99940.38;;;8.80;57.53
74905;BME280;63465;50.862;6.220;2023-04-06T07:47:11;99933.91;;;8.88;56.89
74905;BME280;63465;50.862;6.220;2023-04-06T07:49:37;99926.88;;;8.87;58.27
74905;BME280;63465;50.862;6.220;2023-04-06T07:52:05;99926.63;;;8.93;58.26
74905;BME280;63465;50.862;6.220;2023-04-06T07:54:32;99930.06;;;8.96;57.97
74905;BME280;63465;50.862;6.220;2023-04-06T07:56:59;99928.00;;;9.04;57.61
74905;BME280;63465;50.862;6.220;2023-04-06T07:59:27;99930.59;;;9.27;56.88
74905;BME280;63465;50.862;6.220;2023-04-06T08:01:54;99925.28;;;9.27;57.34
74905;BME280;63465;50.862;6.220;2023-04-06T08:04:21;99930.91;;;9.42;56.93
74905;BME280;63465;50.862;6.220;2023-04-06T08:06:47;99931.06;;;9.59;57.22
74905;BME280;63465;50.862;6.220;2023-04-06T08:09:14;99926.00;;;9.75;56.08
74905;BME280;63465;50.862;6.220;2023-04-06T08:11:41;99920.44;;;9.81;57.21
74905;BME280;63465;50.862;6.220;2023-04-06T08:14:07;99931.84;;;9.84;57.38
74905;BME280;63465;50.862;6.220;2023-04-06T08:16:36;99922.78;;;10.10;56.71
74905;BME280;63465;50.862;6.220;2023-04-06T08:19:02;99928.38;;;10.23;56.00
74905;BME280;63465;50.862;6.220;2023-04-06T08:21:29;99924.63;;;10.28;55.91
74905;BME280;63465;50.862;6.220;2023-04-06T08:23:56;99925.31;;;9.92;55.80
74905;BME280;63465;50.862;6.220;2023-04-06T08:26:23;99923.44;;;10.15;55.50
74905;BME280;63465;50.862;6.220;2023-04-06T08:28:50;99923.09;;;10.23;55.14
74905;BME280;63465;50.862;6.220;2023-04-06T08:31:17;99926.28;;;10.10;54.97
74905;BME280;63465;50.862;6.220;2023-04-06T08:33:45;99928.94;;;10.31;53.85
74905;BME280;63465;50.862;6.220;2023-04-06T08:36:13;99929.06;;;10.28;52.02
74905;BME280;63465;50.862;6.220;2023-04-06T08:38:41;99924.31;;;10.36;52.93
74905;BME280;63465;50.862;6.220;2023-04-06T08:41:08;99929.91;;;10.28;53.39
74905;BME280;63465;50.862;6.220;2023-04-06T08:43:41;99934.91;;;10.36;51.80
74905;BME280;63465;50.862;6.220;2023-04-06T08:46:09;99940.16;;;10.58;49.70
74905;BME280;63465;50.862;6.220;2023-04-06T08:48:38;99932.53;;;10.69;50.06
74905;BME280;63465;50.862;6.220;2023-04-06T08:51:06;99935.56;;;11.00;49.88
74905;BME280;63465;50.862;6.220;2023-04-06T08:53:34;99932.63;;;11.06;50.35
74905;BME280;63465;50.862;6.220;2023-04-06T08:56:02;99935.41;;;10.84;48.45
74905;BME280;63465;50.862;6.220;2023-04-06T08:58:34;99939.03;;;10.43;47.89
74905;BME280;63465;50.862;6.220;2023-04-06T09:01:05;99931.19;;;10.80;48.73
74905;BME280;63465;50.862;6.220;2023-04-06T09:03:35;99941.75;;;10.42;48.34
74905;BME280;63465;50.862;6.220;2023-04-06T09:06:03;99936.03;;;10.70;48.46
74905;BME280;63465;50.862;6.220;2023-04-06T09:08:32;99938.69;;;10.70;47.86
74905;BME280;63465;50.862;6.220;2023-04-06T09:11:00;99936.28;;;10.84;48.48
74905;BME280;63465;50.862;6.220;2023-04-06T09:13:27;99937.41;;;10.98;47.69
74905;BME280;63465;50.862;6.220;2023-04-06T09:16:01;99935.72;;;10.97;47.39
74905;BME280;63465;50.862;6.220;2023-04-06T09:18:28;99942.78;;;11.34;46.38
74905;BME280;63465;50.862;6.220;2023-04-06T09:21:00;99941.44;;;11.62;46.49
74905;BME280;63465;50.862;6.220;2023-04-06T09:23:27;99943.16;;;11.81;45.44
74905;BME280;63465;50.862;6.220;2023-04-06T09:26:08;99939.03;;;11.38;47.43
74905;BME280;63465;50.862;6.220;2023-04-06T09:28:46;99943.22;;;11.44;46.82
74905;BME280;63465;50.862;6.220;2023-04-06T09:31:13;99939.31;;;12.05;45.20
74905;BME280;63465;50.862;6.220;2023-04-06T09:33:41;99929.97;;;12.31;45.43
74905;BME280;63465;50.862;6.220;2023-04-06T09:36:08;99937.97;;;12.14;46.05
74905;BME280;63465;50.862;6.220;2023-04-06T09:38:51;99941.34;;;12.00;45.74
74905;BME280;63465;50.862;6.220;2023-04-06T09:41:22;99940.34;;;11.84;46.75
74905;BME280;63465;50.862;6.220;2023-04-06T09:43:50;99944.28;;;11.76;46.49
74905;BME280;63465;50.862;6.220;2023-04-06T09:46:17;99942.94;;;11.31;46.50
74905;BME280;63465;50.862;6.220;2023-04-06T09:48:46;99940.50;;;11.81;46.81
74905;BME280;63465;50.862;6.220;2023-04-06T09:51:15;99946.09;;;11.20;47.06
74905;BME280;63465;50.862;6.220;2023-04-06T09:53:44;99952.06;;;11.06;47.63
74905;BME280;63465;50.862;6.220;2023-04-06T09:56:20;99950.72;;;11.17;47.22
74905;BME280;63465;50.862;6.220;2023-04-06T09:58:53;99952.25;;;11.40;47.40
74905;BME280;63465;50.862;6.220;2023-04-06T10:01:26;99954.38;;;11.33;48.10
74905;BME280;63465;50.862;6.220;2023-04-06T10:03:59;99959.44;;;11.38;48.24
74905;BME280;63465;50.862;6.220;2023-04-06T10:06:31;99948.63;;;11.77;46.97
74905;BME280;63465;50.862;6.220;2023-04-06T10:09:02;99955.00;;;11.75;47.30
74905;BME280;63465;50.862;6.220;2023-04-06T10:11:30;99953.16;;;11.94;46.07
74905;BME280;63465;50.862;6.220;2023-04-06T10:13:59;99955.13;;;11.35;46.74
74905;BME280;63465;50.862;6.220;2023-04-06T10:16:27;99959.44;;;11.19;47.89
74905;BME280;63465;50.862;6.220;2023-04-06T10:18:59;99950.88;;;11.50;47.76
74905;BME280;63465;50.862;6.220;2023-04-06T10:21:27;99944.09;;;11.62;47.38
74905;BME280;63465;50.862;6.220;2023-04-06T10:23:59;99957.59;;;11.21;48.39
74905;BME280;63465;50.862;6.220;2023-04-06T10:26:26;99949.19;;;11.30;48.54
74905;BME280;63465;50.862;6.220;2023-04-06T10:28:53;99951.41;;;11.20;48.81
74905;BME280;63465;50.862;6.220;2023-04-06T10:31:28;99953.31;;;11.55;48.09
74905;BME280;63465;50.862;6.220;2023-04-06T10:33:55;99939.91;;;12.28;46.95
74905;BME280;63465;50.862;6.220;2023-04-06T10:36:24;99948.69;;;12.30;47.31
74905;BME280;63465;50.862;6.220;2023-04-06T10:38:56;99952.56;;;11.88;48.55
74905;BME280;63465;50.862;6.220;2023-04-06T10:41:23;99950.88;;;11.87;48.60
74905;BME280;63465;50.862;6.220;2023-04-06T10:43:55;99944.22;;;12.30;47.44
74905;BME280;63465;50.862;6.220;2023-04-06T10:46:25;99947.09;;;11.91;49.14
74905;BME280;63465;50.862;6.220;2023-04-06T10:48:53;99944.78;;;12.20;49.59
74905;BME280;63465;50.862;6.220;2023-04-06T10:51:24;99948.81;;;11.92;48.87
74905;BME280;63465;50.862;6.220;2023-04-06T10:53:53;99950.50;;;11.58;49.54
74905;BME280;63465;50.862;6.220;2023-04-06T10:56:23;99950.88;;;11.87;49.84
74905;BME280;63465;50.862;6.220;2023-04-06T10:58:52;99941.25;;;11.48;50.61
74905;BME280;63465;50.862;6.220;2023-04-06T11:01:22;99947.09;;;11.73;49.77
74905;BME280;63465;50.862;6.220;2023-04-06T11:03:50;99946.75;;;11.62;50.00
74905;BME280;63465;50.862;6.220;2023-04-06T11:06:19;99943.97;;;11.83;49.79
74905;BME280;63465;50.862;6.220;2023-04-06T11:08:46;99944.44;;;11.91;50.55
74905;BME280;63465;50.862;6.220;2023-04-06T11:11:16;99941.00;;;12.06;50.53
74905;BME280;63465;50.862;6.220;2023-04-06T11:13:45;99936.94;;;12.17;48.81
74905;BME280;63465;50.862;6.220;2023-04-06T11:16:13;99939.22;;;12.24;48.84
74905;BME280;63465;50.862;6.220;2023-04-06T11:18:48;99934.84;;;12.57;48.47
74905;BME280;63465;50.862;6.220;2023-04-06T11:21:15;99925.69;;;11.94;49.21
74905;BME280;63465;50.862;6.220;2023-04-06T11:23:43;99927.16;;;12.17;49.53
74905;BME280;63465;50.862;6.220;2023-04-06T11:26:11;99931.81;;;11.96;49.01
74905;BME280;63465;50.862;6.220;2023-04-06T11:28:38;99933.84;;;12.08;49.22
74905;BME280;63465;50.862;6.220;2023-04-06T11:31:06;99935.34;;;11.77;49.56
74905;BME280;63465;50.862;6.220;2023-04-06T11:33:35;99935.03;;;11.84;49.93
74905;BME280;63465;50.862;6.220;2023-04-06T11:36:03;99929.59;;;11.87;50.95
74905;BME280;63465;50.862;6.220;2023-04-06T11:38:30;99928.75;;;11.50;51.81
74905;BME280;63465;50.862;6.220;2023-04-06T11:40:58;99927.50;;;11.57;52.85
74905;BME280;63465;50.862;6.220;2023-04-06T11:43:29;99925.72;;;11.21;53.73
74905;BME280;63465;50.862;6.220;2023-04-06T11:46:02;99922.97;;;11.59;54.25
74905;BME280;63465;50.862;6.220;2023-04-06T11:48:30;99916.13;;;11.72;56.37
74905;BME280;63465;50.862;6.220;2023-04-06T11:50:58;99918.19;;;12.02;55.73
74905;BME280;63465;50.862;6.220;2023-04-06T11:53:26;99920.22;;;11.43;56.05
74905;BME280;63465;50.862;6.220;2023-04-06T11:55:53;99921.75;;;11.30;56.36
74905;BME280;63465;50.862;6.220;2023-04-06T11:58:21;99921.56;;;10.96;56.20
74905;BME280;63465;50.862;6.220;2023-04-06T12:00:48;99916.59;;;10.88;59.40
74905;BME280;63465;50.862;6.220;2023-04-06T12:03:15;99925.31;;;10.92;57.65
74905;BME280;63465;50.862;6.220;2023-04-06T12:05:42;99915.31;;;10.59;57.74
74905;BME280;63465;50.862;6.220;2023-04-06T12:08:09;99922.97;;;10.65;58.35
74905;BME280;63465;50.862;6.220;2023-04-06T12:10:36;99922.84;;;10.68;59.02
74905;BME280;63465;50.862;6.220;2023-04-06T12:13:04;99928.94;;;10.31;60.47
74905;BME280;63465;50.862;6.220;2023-04-06T12:15:32;99921.78;;;10.33;60.97
74905;BME280;63465;50.862;6.220;2023-04-06T12:17:58;99906.63;;;10.56;61.27
74905;BME280;63465;50.862;6.220;2023-04-06T12:20:25;99921.56;;;10.58;60.69
74905;BME280;63465;50.862;6.220;2023-04-06T12:22:52;99916.66;;;10.49;59.80
74905;BME280;63465;50.862;6.220;2023-04-06T12:25:20;99927.81;;;10.37;62.33
74905;BME280;63465;50.862;6.220;2023-04-06T12:27:46;99927.94;;;10.13;61.34
74905;BME280;63465;50.862;6.220;2023-04-06T12:30:14;99927.78;;;9.75;63.70
74905;BME280;63465;50.862;6.220;2023-04-06T12:32:42;99929.25;;;9.82;64.76
74905;BME280;63465;50.862;6.220;2023-04-06T12:35:09;99926.88;;;9.96;65.38
74905;BME280;63465;50.862;6.220;2023-04-06T12:37:37;99927.28;;;10.08;65.99
74905;BME280;63465;50.862;6.220;2023-04-06T12:40:05;99923.69;;;10.29;65.97
74905;BME280;63465;50.862;6.220;2023-04-06T12:42:32;99914.41;;;10.19;64.63
74905;BME280;63465;50.862;6.220;2023-04-06T12:44:59;99918.00;;;9.97;67.35
74905;BME280;63465;50.862;6.220;2023-04-06T12:47:25;99921.19;;;9.85;65.52
74905;BME280;63465;50.862;6.220;2023-04-06T12:49:54;99915.09;;;10.04;66.92
74905;BME280;63465;50.862;6.220;2023-04-06T12:52:22;99921.19;;;9.85;67.19
74905;BME280;63465;50.862;6.220;2023-04-06T12:54:49;99908.19;;;9.99;68.83
74905;BME280;63465;50.862;6.220;2023-04-06T12:57:16;99914.69;;;10.13;69.50
74905;BME280;63465;50.862;6.220;2023-04-06T12:59:43;99908.41;;;10.15;68.88
74905;BME280;63465;50.862;6.220;2023-04-06T13:02:11;99905.59;;;9.98;69.25
74905;BME280;63465;50.862;6.220;2023-04-06T13:04:38;99907.13;;;10.04;69.16
74905;BME280;63465;50.862;6.220;2023-04-06T13:07:06;99896.94;;;9.94;70.98
74905;BME280;63465;50.862;6.220;2023-04-06T13:09:33;99900.22;;;9.99;70.71
74905;BME280;63465;50.862;6.220;2023-04-06T13:12:00;99898.03;;;9.68;70.95
74905;BME280;63465;50.862;6.220;2023-04-06T13:14:27;99906.06;;;9.87;71.05
74905;BME280;63465;50.862;6.220;2023-04-06T13:16:54;99900.91;;;10.05;71.49